Time;durP1;ratioP1;P1;durP2;ratioP2;P2;SDS_P1;SDS_P2;PMS_P1;PMS_P2;Temp;Humidity;BMP_temperature;BMP_pressure;BME280_temperature;BME280_humidity;BME280_pressure;Samples;Min_cycle;Max_cycle;Signal;HPM_P1;HPM_P2
2023/01/27 00:02:21;;;;;;;;;;;17.20;48.60;;;;;;10170515;28;1965;-73
2023/01/27 00:07:16;;;;;;;;;;;17.20;48.60;;;;;;10169633;28;1034;-73
2023/01/27 00:17:26;;;;;;;;;;;17.10;48.70;;;;;;10169481;28;679;-73
2023/01/27 00:27:35;;;;;;;;;;;17.10;48.70;;;;;;10169077;28;601;-73
2023/01/27 00:37:44;;;;;;;;;;;17.10;48.70;;;;;;10168062;28;1520;-73
2023/01/27 00:42:39;;;;;;;;;;;17.10;48.60;;;;;;10169137;28;1977;-73
2023/01/27 00:47:35;;;;;;;;;;;17.10;48.60;;;;;;10167716;28;969;-73
2023/01/27 00:52:30;;;;;;;;;;;17.10;48.50;;;;;;10168087;28;872;-73
2023/01/27 00:57:25;;;;;;;;;;;17.10;48.60;;;;;;10168463;28;901;-73
2023/01/27 01:02:21;;;;;;;;;;;17.10;48.60;;;;;;10167563;28;1973;-73
2023/01/27 01:07:16;;;;;;;;;;;17.10;48.60;;;;;;10168734;28;854;-73
2023/01/27 01:12:12;;;;;;;;;;;17.10;48.60;;;;;;10167305;28;917;-73
2023/01/27 01:17:07;;;;;;;;;;;17.10;48.60;;;;;;10167726;28;947;-73
2023/01/27 01:22:02;;;;;;;;;;;17.10;48.50;;;;;;10167422;28;1879;-73
2023/01/27 01:26:58;;;;;;;;;;;17.10;48.60;;;;;;10167287;28;849;-73
2023/01/27 01:31:53;;;;;;;;;;;17.10;48.50;;;;;;10166556;28;909;-73
2023/01/27 01:36:48;;;;;;;;;;;17.20;48.50;;;;;;10166395;28;893;-73
2023/01/27 01:41:44;;;;;;;;;;;17.20;48.50;;;;;;10166302;28;1985;-73
2023/01/27 01:46:39;;;;;;;;;;;17.20;48.50;;;;;;10165935;28;879;-73
2023/01/27 01:51:34;;;;;;;;;;;17.10;48.40;;;;;;10165261;28;867;-73
2023/01/27 01:56:30;;;;;;;;;;;17.10;48.40;;;;;;10165618;28;928;-73
2023/01/27 02:01:25;;;;;;;;;;;17.10;48.50;;;;;;10166216;28;1965;-73
2023/01/27 02:06:20;;;;;;;;;;;17.10;48.50;;;;;;10166000;28;870;-73
2023/01/27 02:11:16;;;;;;;;;;;17.10;48.60;;;;;;10165174;28;885;-73
2023/01/27 02:16:11;;;;;;;;;;;17.10;48.50;;;;;;10164973;28;796;-73
2023/01/27 02:21:07;;;;;;;;;;;17.10;48.50;;;;;;10164750;28;1898;-73
2023/01/27 02:26:02;;;;;;;;;;;17.10;48.50;;;;;;10164755;28;902;-73
2023/01/27 02:30:57;;;;;;;;;;;17.10;48.60;;;;;;10164530;28;1584;-73
2023/01/27 02:35:53;;;;;;;;;;;17.10;48.60;;;;;;10163938;28;775;-73
2023/01/27 02:40:48;;;;;;;;;;;17.00;48.50;;;;;;10164201;28;1351;-73
2023/01/27 02:45:43;;;;;;;;;;;17.10;48.60;;;;;;10164134;28;1001;-73
2023/01/27 02:50:39;;;;;;;;;;;17.10;48.50;;;;;;10164170;28;850;-73
2023/01/27 02:55:34;;;;;;;;;;;17.10;48.50;;;;;;10164129;28;822;-73
2023/01/27 03:00:29;;;;;;;;;;;17.10;48.50;;;;;;10163863;28;925;-73
2023/01/27 03:05:25;;;;;;;;;;;17.10;48.40;;;;;;10163725;28;1975;-73
2023/01/27 03:10:20;;;;;;;;;;;17.10;48.40;;;;;;10164364;28;973;-73
2023/01/27 03:20:30;;;;;;;;;;;17.10;48.30;;;;;;10163210;28;612;-73
2023/01/27 03:25:25;;;;;;;;;;;17.20;48.20;;;;;;10162813;28;1907;-73
2023/01/27 03:30:21;;;;;;;;;;;17.10;48.20;;;;;;10163370;28;853;-73
2023/01/27 03:35:16;;;;;;;;;;;17.10;48.20;;;;;;10163577;28;809;-73
2023/01/27 03:50:42;;;;;;;;;;;17.20;48.20;;;;;;10169272;28;620;-73
2023/01/27 03:55:37;;;;;;;;;;;17.20;48.20;;;;;;10170821;28;872;-73
2023/01/27 04:00:32;;;;;;;;;;;17.20;48.20;;;;;;10170051;28;928;-73
2023/01/27 04:11:53;;;;;;;;;;;17.20;48.20;;;;;;10169872;28;613;-73
2023/01/27 04:15:57;;;;;;;;;;;17.20;48.30;;;;;;10170077;28;1645;-73
2023/01/27 04:20:52;;;;;;;;;;;17.10;48.30;;;;;;10169825;28;1961;-73
2023/01/27 04:25:49;;;;;;;;;;;17.10;48.30;;;;;;10169246;28;830;-73
2023/01/27 04:30:44;;;;;;;;;;;17.10;48.30;;;;;;10169511;28;886;-73
2023/01/27 04:35:40;;;;;;;;;;;17.10;48.30;;;;;;10168764;28;910;-73
2023/01/27 04:40:35;;;;;;;;;;;17.10;48.40;;;;;;10168768;28;1101;-73
2023/01/27 04:45:30;;;;;;;;;;;17.00;48.30;;;;;;10168311;28;1894;-73
2023/01/27 04:50:26;;;;;;;;;;;17.00;48.30;;;;;;10168792;28;775;-72
2023/01/27 04:55:21;;;;;;;;;;;17.10;48.30;;;;;;10168564;28;885;-72
2023/01/27 05:00:16;;;;;;;;;;;17.00;48.30;;;;;;10168018;28;862;-72
2023/01/27 05:05:12;;;;;;;;;;;17.10;48.40;;;;;;10168505;28;1903;-72
2023/01/27 05:10:07;;;;;;;;;;;17.10;48.20;;;;;;10167491;28;767;-72
2023/01/27 05:15:02;;;;;;;;;;;17.10;48.20;;;;;;10167984;28;881;-72
2023/01/27 05:19:58;;;;;;;;;;;17.10;48.20;;;;;;10167129;28;990;-72
2023/01/27 05:24:53;;;;;;;;;;;17.20;48.20;;;;;;10167433;28;1962;-72
2023/01/27 05:29:49;;;;;;;;;;;17.20;48.10;;;;;;10166689;28;806;-72
2023/01/27 05:34:44;;;;;;;;;;;17.20;48.10;;;;;;10166524;28;877;-72
2023/01/27 05:39:42;;;;;;;;;;;17.20;48.00;;;;;;10166787;28;1166;-72
2023/01/27 05:44:37;;;;;;;;;;;17.20;48.00;;;;;;10166111;28;1911;-72
2023/01/27 05:49:32;;;;;;;;;;;17.20;48.10;;;;;;10166519;28;972;-72
2023/01/27 05:54:30;;;;;;;;;;;17.30;48.00;;;;;;10165795;28;763;-72
2023/01/27 05:59:25;;;;;;;;;;;17.30;48.00;;;;;;10165049;28;889;-72
2023/01/27 06:04:21;;;;;;;;;;;17.20;48.10;;;;;;10165922;28;1898;-72
2023/01/27 06:09:16;;;;;;;;;;;17.20;48.00;;;;;;10164746;28;984;-72
2023/01/27 06:14:11;;;;;;;;;;;17.30;48.00;;;;;;10165669;28;919;-73
2023/01/27 06:19:07;;;;;;;;;;;17.30;48.10;;;;;;10165680;28;840;-79
2023/01/27 06:24:03;;;;;;;;;;;17.20;48.10;;;;;;10165242;28;1898;-78
2023/01/27 06:28:58;;;;;;;;;;;17.20;48.20;;;;;;10164535;28;1183;-77
2023/01/27 06:33:53;;;;;;;;;;;17.20;48.30;;;;;;10164170;28;905;-75
2023/01/27 06:38:49;;;;;;;;;;;17.20;48.10;;;;;;10163873;28;1420;-78
2023/01/27 06:43:44;;;;;;;;;;;17.30;48.20;;;;;;10164456;28;1977;-79
2023/01/27 06:48:40;;;;;;;;;;;17.20;48.20;;;;;;10164610;28;921;-79
2023/01/27 06:53:36;;;;;;;;;;;17.20;48.30;;;;;;10163977;28;754;-79
2023/01/27 06:58:32;;;;;;;;;;;17.20;48.30;;;;;;10163830;28;798;-79
2023/01/27 07:03:27;;;;;;;;;;;17.20;48.20;;;;;;10163594;28;1903;-80
2023/01/27 07:08:23;;;;;;;;;;;17.20;48.20;;;;;;10164076;28;810;-78
2023/01/27 07:13:18;;;;;;;;;;;17.20;48.20;;;;;;10163398;28;893;-79
2023/01/27 07:18:13;;;;;;;;;;;17.20;48.30;;;;;;10163257;28;842;-80
2023/01/27 07:23:09;;;;;;;;;;;17.20;48.20;;;;;;10168007;28;1960;-79
2023/01/27 07:28:04;;;;;;;;;;;17.20;48.20;;;;;;10171024;28;747;-79
2023/01/27 07:32:59;;;;;;;;;;;17.20;48.20;;;;;;10171551;28;872;-78
2023/01/27 07:37:55;;;;;;;;;;;17.30;48.20;;;;;;10170433;28;1413;-79
2023/01/27 07:42:50;;;;;;;;;;;17.30;48.10;;;;;;10170445;28;1910;-78
2023/01/27 07:47:46;;;;;;;;;;;17.30;48.00;;;;;;10170917;28;827;-76
2023/01/27 07:52:41;;;;;;;;;;;17.40;48.00;;;;;;10170265;28;763;-74
2023/01/27 07:57:36;;;;;;;;;;;17.40;48.10;;;;;;10170812;28;810;-74
2023/01/27 08:02:32;;;;;;;;;;;17.40;48.10;;;;;;10169416;28;1960;-74
2023/01/27 08:07:27;;;;;;;;;;;17.40;48.00;;;;;;10169883;28;866;-73
2023/01/27 08:12:22;;;;;;;;;;;17.40;48.10;;;;;;10170818;28;863;-74
2023/01/27 08:17:18;;;;;;;;;;;17.40;48.10;;;;;;10170020;28;848;-72
2023/01/27 08:22:18;;;;;;;;;;;17.40;48.20;;;;;;10169829;28;1911;-74
2023/01/27 08:27:14;;;;;;;;;;;17.40;48.50;;;;;;10169976;28;783;-75
2023/01/27 08:32:09;;;;;;;;;;;17.40;48.70;;;;;;10168220;28;875;-75
2023/01/27 08:37:05;;;;;;;;;;;17.50;48.80;;;;;;10169332;28;898;-77
2023/01/27 08:42:00;;;;;;;;;;;17.50;49.00;;;;;;10168895;28;1970;-77
2023/01/27 08:46:56;;;;;;;;;;;17.40;49.10;;;;;;10183613;28;827;-78
2023/01/27 08:51:51;;;;;;;;;;;17.40;49.00;;;;;;10168682;28;866;-78
2023/01/27 08:56:46;;;;;;;;;;;17.40;49.00;;;;;;10168408;28;849;-72
2023/01/27 09:01:42;;;;;;;;;;;17.40;48.90;;;;;;10168357;28;1910;-76
2023/01/27 09:06:37;;;;;;;;;;;17.40;49.00;;;;;;10168862;28;903;-78
2023/01/27 09:11:32;;;;;;;;;;;17.50;48.90;;;;;;10167976;28;1004;-75
2023/01/27 09:16:28;;;;;;;;;;;17.40;48.90;;;;;;10167922;28;806;-74
2023/01/27 09:21:23;;;;;;;;;;;17.40;49.00;;;;;;10166860;28;2024;-76
2023/01/27 09:26:19;;;;;;;;;;;17.40;48.90;;;;;;10167496;28;846;-76
2023/01/27 09:31:14;;;;;;;;;;;17.40;48.80;;;;;;10166709;28;763;-76
2023/01/27 09:36:10;;;;;;;;;;;17.40;48.90;;;;;;10167317;28;830;-76
2023/01/27 09:41:05;;;;;;;;;;;17.40;48.90;;;;;;10165544;28;1977;-76
2023/01/27 09:46:01;;;;;;;;;;;17.30;48.90;;;;;;10166110;28;756;-76
2023/01/27 09:50:57;;;;;;;;;;;17.30;48.90;;;;;;10167128;28;856;-76
2023/01/27 09:55:52;;;;;;;;;;;17.30;48.80;;;;;;10165764;28;790;-76
2023/01/27 10:00:47;;;;;;;;;;;17.30;48.80;;;;;;10166176;28;877;-76
2023/01/27 10:05:43;;;;;;;;;;;17.30;48.80;;;;;;10164950;28;1965;-76
2023/01/27 10:10:38;;;;;;;;;;;17.30;48.70;;;;;;10165263;28;811;-76
2023/01/27 10:15:36;;;;;;;;;;;17.40;48.70;;;;;;10165123;28;782;-76
2023/01/27 10:20:31;;;;;;;;;;;17.40;48.60;;;;;;10165456;28;994;-76
2023/01/27 10:25:26;;;;;;;;;;;17.40;48.60;;;;;;10164660;28;1955;-76
2023/01/27 10:30:22;;;;;;;;;;;17.40;48.50;;;;;;10164619;28;922;-76
2023/01/27 10:35:18;;;;;;;;;;;17.40;48.50;;;;;;10164444;28;863;-76
2023/01/27 10:40:13;;;;;;;;;;;17.40;48.50;;;;;;10164578;28;1107;-76
2023/01/27 10:45:08;;;;;;;;;;;17.40;48.50;;;;;;10163644;28;1970;-76
2023/01/27 10:50:04;;;;;;;;;;;17.50;48.40;;;;;;10164770;28;804;-76
2023/01/27 10:54:59;;;;;;;;;;;17.50;48.40;;;;;;10163909;28;794;-76
2023/01/27 10:59:54;;;;;;;;;;;17.50;48.40;;;;;;10163856;28;858;-76
2023/01/27 11:04:50;;;;;;;;;;;17.50;48.50;;;;;;10164054;28;1894;-76
2023/01/27 11:09:45;;;;;;;;;;;17.50;48.40;;;;;;10163136;28;1067;-76
2023/01/27 11:14:41;;;;;;;;;;;17.50;48.40;;;;;;10163671;28;921;-76
2023/01/27 11:19:36;;;;;;;;;;;17.50;48.40;;;;;;10163638;28;873;-74
2023/01/27 11:24:31;;;;;;;;;;;17.50;48.40;;;;;;10163374;28;1951;-77
2023/01/27 11:29:27;;;;;;;;;;;17.30;48.60;;;;;;10164551;28;925;-79
2023/01/27 11:34:22;;;;;;;;;;;17.40;48.50;;;;;;10163344;28;774;-75
2023/01/27 11:39:18;;;;;;;;;;;17.40;48.40;;;;;;10163698;28;1320;-77
2023/01/27 11:44:13;;;;;;;;;;;17.40;48.30;;;;;;10163661;28;1991;-78
2023/01/27 11:49:08;;;;;;;;;;;17.50;48.30;;;;;;10164280;28;879;-78
2023/01/27 11:54:04;;;;;;;;;;;17.50;48.20;;;;;;10163883;28;841;-77
2023/01/27 11:58:59;;;;;;;;;;;17.50;48.20;;;;;;10163141;28;890;-77
2023/01/27 12:03:54;;;;;;;;;;;17.50;48.30;;;;;;10162188;28;1910;-78
2023/01/27 12:08:50;;;;;;;;;;;17.50;48.40;;;;;;10165656;28;1068;-78
2023/01/27 12:13:45;;;;;;;;;;;17.60;48.50;;;;;;10170848;28;846;-78
2023/01/27 12:18:41;;;;;;;;;;;17.50;49.00;;;;;;10170698;28;791;-78
2023/01/27 12:23:36;;;;;;;;;;;17.50;48.40;;;;;;10169224;28;1975;-78
2023/01/27 12:28:32;;;;;;;;;;;17.60;48.40;;;;;;10169722;28;807;-78
2023/01/27 12:33:27;;;;;;;;;;;17.50;48.50;;;;;;10168920;28;1036;-78
2023/01/27 12:38:22;;;;;;;;;;;17.50;48.40;;;;;;10168331;28;1316;-78
2023/01/27 12:43:18;;;;;;;;;;;17.50;48.50;;;;;;10168500;28;1986;-78
2023/01/27 12:48:15;;;;;;;;;;;17.50;48.50;;;;;;10168421;28;826;-78
2023/01/27 12:53:11;;;;;;;;;;;17.50;48.50;;;;;;10168371;28;890;-78
2023/01/27 12:58:07;;;;;;;;;;;17.50;48.70;;;;;;10168229;28;880;-79
2023/01/27 13:03:02;;;;;;;;;;;17.50;48.90;;;;;;10168655;28;1911;-72
2023/01/27 13:07:58;;;;;;;;;;;17.50;49.00;;;;;;10167712;28;822;-72
2023/01/27 13:12:53;;;;;;;;;;;17.50;49.10;;;;;;10167516;28;786;-74
2023/01/27 13:17:49;;;;;;;;;;;17.60;49.10;;;;;;10167346;28;818;-74
2023/01/27 13:22:44;;;;;;;;;;;17.50;49.00;;;;;;10166721;28;1914;-74
2023/01/27 13:27:39;;;;;;;;;;;17.50;49.00;;;;;;10166875;28;957;-74
2023/01/27 13:32:35;;;;;;;;;;;17.50;49.00;;;;;;10167314;28;902;-74
2023/01/27 13:37:30;;;;;;;;;;;17.50;48.80;;;;;;10165876;28;1100;-74
2023/01/27 13:42:26;;;;;;;;;;;17.50;48.90;;;;;;10165485;28;1902;-74
2023/01/27 13:47:21;;;;;;;;;;;17.50;49.00;;;;;;10166125;28;850;-74
2023/01/27 13:52:17;;;;;;;;;;;17.50;49.10;;;;;;10166091;28;996;-76
2023/01/27 13:57:12;;;;;;;;;;;17.60;49.10;;;;;;10165512;28;957;-73
2023/01/27 14:02:07;;;;;;;;;;;17.50;49.00;;;;;;10165208;28;2022;-73
2023/01/27 14:07:03;;;;;;;;;;;17.60;49.10;;;;;;10164528;28;972;-73
2023/01/27 14:11:58;;;;;;;;;;;17.60;49.10;;;;;;10164957;28;761;-73
2023/01/27 14:16:53;;;;;;;;;;;17.60;49.10;;;;;;10164938;28;933;-81
2023/01/27 14:21:49;;;;;;;;;;;17.40;49.20;;;;;;10164674;28;1960;-81
2023/01/27 14:26:46;;;;;;;;;;;17.20;49.50;;;;;;10164505;28;792;-80
2023/01/27 14:31:41;;;;;;;;;;;17.10;49.60;;;;;;10163775;28;973;-80
2023/01/27 14:36:36;;;;;;;;;;;17.10;49.70;;;;;;10164165;28;912;-81
2023/01/27 14:41:32;;;;;;;;;;;17.10;49.80;;;;;;10164427;28;1957;-80
2023/01/27 14:46:27;;;;;;;;;;;17.10;49.60;;;;;;10164073;28;814;-81
2023/01/27 14:51:22;;;;;;;;;;;17.10;49.60;;;;;;10165125;28;861;-81
2023/01/27 14:56:18;;;;;;;;;;;17.10;49.50;;;;;;10165062;28;759;-81
2023/01/27 15:01:13;;;;;;;;;;;17.10;49.50;;;;;;10163734;28;783;-81
2023/01/27 15:06:08;;;;;;;;;;;17.10;49.50;;;;;;10164465;28;1955;-81
2023/01/27 15:11:04;;;;;;;;;;;17.10;49.50;;;;;;10164184;28;985;-79
2023/01/27 15:15:59;;;;;;;;;;;17.10;49.50;;;;;;10164295;28;786;-79
2023/01/27 15:20:54;;;;;;;;;;;17.10;49.40;;;;;;10163613;28;866;-78
2023/01/27 15:25:50;;;;;;;;;;;17.10;49.30;;;;;;10164024;28;1969;-78
2023/01/27 15:30:45;;;;;;;;;;;17.10;49.30;;;;;;10162875;28;822;-80
2023/01/27 15:35:41;;;;;;;;;;;17.10;49.30;;;;;;10163957;28;846;-80
2023/01/27 15:40:36;;;;;;;;;;;17.10;49.30;;;;;;10163497;28;1525;-78
2023/01/27 15:45:31;;;;;;;;;;;17.10;49.30;;;;;;10170677;28;1906;-78
2023/01/27 15:50:27;;;;;;;;;;;17.10;49.30;;;;;;10171597;28;858;-78
2023/01/27 15:55:22;;;;;;;;;;;17.10;49.30;;;;;;10171075;28;936;-78
2023/01/27 16:00:18;;;;;;;;;;;17.10;49.30;;;;;;10170777;28;791;-78
2023/01/27 16:05:13;;;;;;;;;;;17.10;49.30;;;;;;10169865;28;1969;-78
2023/01/27 16:10:08;;;;;;;;;;;17.10;49.30;;;;;;10170485;28;887;-78
2023/01/27 16:15:04;;;;;;;;;;;17.10;49.30;;;;;;10170430;28;861;-78
2023/01/27 16:19:59;;;;;;;;;;;17.10;49.20;;;;;;10170466;28;810;-80
2023/01/27 16:24:55;;;;;;;;;;;17.00;49.20;;;;;;10170135;28;1906;-85
2023/01/27 16:29:52;;;;;;;;;;;17.00;49.30;;;;;;10169291;28;883;-78
2023/01/27 16:34:48;;;;;;;;;;;17.00;49.40;;;;;;10168538;28;767;-84
2023/01/27 16:39:43;;;;;;;;;;;16.90;49.40;;;;;;10169299;28;1390;-78
2023/01/27 16:44:39;;;;;;;;;;;17.00;49.50;;;;;;10168516;28;1910;-78
2023/01/27 16:49:34;;;;;;;;;;;17.00;49.40;;;;;;10168484;28;891;-78
2023/01/27 16:54:29;;;;;;;;;;;17.00;49.30;;;;;;10167053;28;889;-78
2023/01/27 16:59:28;;;;;;;;;;;17.00;49.30;;;;;;10168653;28;846;-73
2023/01/27 17:04:23;;;;;;;;;;;17.00;49.30;;;;;;10168163;28;1906;-78
2023/01/27 17:09:19;;;;;;;;;;;17.00;49.30;;;;;;10167700;28;743;-78
2023/01/27 17:14:15;;;;;;;;;;;17.00;49.30;;;;;;10166874;28;953;-77
2023/01/27 17:19:10;;;;;;;;;;;17.00;49.30;;;;;;10167921;28;870;-82
2023/01/27 17:24:06;;;;;;;;;;;17.00;49.30;;;;;;10167162;28;1968;-76
2023/01/27 17:29:01;;;;;;;;;;;17.00;49.30;;;;;;10166949;28;841;-78
2023/01/27 17:33:56;;;;;;;;;;;17.00;49.30;;;;;;10166679;28;774;-78
2023/01/27 17:38:52;;;;;;;;;;;17.10;49.30;;;;;;10166903;28;1163;-78
2023/01/27 17:43:47;;;;;;;;;;;17.10;49.30;;;;;;10166259;28;1918;-78
2023/01/27 17:48:42;;;;;;;;;;;17.10;49.30;;;;;;10166121;28;846;-78
2023/01/27 17:53:38;;;;;;;;;;;17.10;49.30;;;;;;10165962;28;860;-78
2023/01/27 17:58:33;;;;;;;;;;;17.10;49.30;;;;;;10166390;28;865;-77
2023/01/27 18:03:28;;;;;;;;;;;17.10;49.40;;;;;;10165630;28;1910;-78
2023/01/27 18:08:24;;;;;;;;;;;17.10;49.30;;;;;;10165251;28;1053;-78
2023/01/27 18:13:19;;;;;;;;;;;17.10;49.30;;;;;;10165364;28;771;-78
2023/01/27 18:18:15;;;;;;;;;;;17.10;49.30;;;;;;10165737;28;869;-78
2023/01/27 18:23:10;;;;;;;;;;;17.10;49.20;;;;;;10164898;28;1961;-78
2023/01/27 18:28:05;;;;;;;;;;;17.10;49.20;;;;;;10164846;28;856;-78
2023/01/27 18:33:01;;;;;;;;;;;17.10;49.20;;;;;;10164697;28;857;-78
2023/01/27 18:37:57;;;;;;;;;;;17.10;49.20;;;;;;10165414;28;1439;-78
2023/01/27 18:42:52;;;;;;;;;;;17.10;49.10;;;;;;10165057;28;1918;-78
2023/01/27 18:47:48;;;;;;;;;;;17.10;49.10;;;;;;10164230;28;825;-78
2023/01/27 18:52:43;;;;;;;;;;;17.10;49.10;;;;;;10164172;28;917;-78
2023/01/27 18:57:39;;;;;;;;;;;17.10;49.10;;;;;;10164084;28;786;-78
2023/01/27 19:02:34;;;;;;;;;;;17.10;49.20;;;;;;10163933;28;1906;-78
2023/01/27 19:07:31;;;;;;;;;;;17.10;49.20;;;;;;10163895;28;934;-78
2023/01/27 19:12:26;;;;;;;;;;;17.10;49.20;;;;;;10163877;28;875;-78
2023/01/27 19:17:23;;;;;;;;;;;17.10;49.10;;;;;;10165684;28;957;-78
2023/01/27 19:22:21;;;;;;;;;;;17.10;49.10;;;;;;10171696;28;1895;-75
2023/01/27 19:27:16;;;;;;;;;;;17.20;49.10;;;;;;10171514;28;789;-76
2023/01/27 19:32:12;;;;;;;;;;;17.20;49.10;;;;;;10171684;28;913;-91
2023/01/27 19:37:07;;;;;;;;;;;17.10;49.10;;;;;;10186906;28;753;-80
2023/01/27 19:42:02;;;;;;;;;;;17.10;49.10;;;;;;10171260;28;1907;-80
2023/01/27 19:46:58;;;;;;;;;;;17.10;49.10;;;;;;10170837;28;864;-80
2023/01/27 19:51:53;;;;;;;;;;;17.10;49.00;;;;;;10170057;28;948;-76
2023/01/27 19:56:48;;;;;;;;;;;17.10;48.90;;;;;;10170477;28;830;-76
2023/01/27 20:01:44;;;;;;;;;;;17.10;48.90;;;;;;10170182;28;1974;-76
2023/01/27 20:06:39;;;;;;;;;;;17.10;49.00;;;;;;10170463;28;881;-76
2023/01/27 20:11:35;;;;;;;;;;;17.10;49.00;;;;;;10169956;28;755;-76
2023/01/27 20:16:30;;;;;;;;;;;17.10;48.90;;;;;;10170347;28;872;-76
2023/01/27 20:21:25;;;;;;;;;;;17.10;49.60;;;;;;10170082;28;1903;-76
2023/01/27 20:26:21;;;;;;;;;;;17.10;48.90;;;;;;10170168;28;847;-76
2023/01/27 20:31:16;;;;;;;;;;;17.20;49.00;;;;;;10168299;28;863;-76
2023/01/27 20:36:12;;;;;;;;;;;17.20;49.00;;;;;;10169026;28;759;-76
2023/01/27 20:41:07;;;;;;;;;;;17.20;49.00;;;;;;10169298;28;1150;-76
2023/01/27 20:46:04;;;;;;;;;;;17.20;49.00;;;;;;10168564;28;1973;-76
2023/01/27 20:50:59;;;;;;;;;;;17.10;48.90;;;;;;10168515;28;795;-76
2023/01/27 20:55:56;;;;;;;;;;;17.10;49.00;;;;;;10168817;28;899;-76
2023/01/27 21:00:51;;;;;;;;;;;17.10;49.10;;;;;;10168104;28;801;-76
2023/01/27 21:05:47;;;;;;;;;;;17.10;49.10;;;;;;10167822;28;1911;-76
2023/01/27 21:10:42;;;;;;;;;;;17.10;49.10;;;;;;10168739;28;1041;-76
2023/01/27 21:15:37;;;;;;;;;;;17.10;49.10;;;;;;10167635;28;764;-76
2023/01/27 21:20:33;;;;;;;;;;;17.10;49.00;;;;;;10168132;28;865;-76
2023/01/27 21:25:28;;;;;;;;;;;17.00;49.00;;;;;;10167646;28;1971;-82
2023/01/27 21:30:24;;;;;;;;;;;17.00;49.00;;;;;;10166941;28;868;-82
2023/01/27 21:35:20;;;;;;;;;;;17.10;49.00;;;;;;10181778;28;909;-82
2023/01/27 21:40:15;;;;;;;;;;;17.10;49.00;;;;;;10165812;28;1287;-82
2023/01/27 21:45:14;;;;;;;;;;;17.00;49.00;;;;;;10166482;28;1914;-82
2023/01/27 21:50:10;;;;;;;;;;;17.10;48.90;;;;;;10166202;28;787;-82
2023/01/27 21:55:05;;;;;;;;;;;17.00;48.90;;;;;;10166050;28;754;-82
2023/01/27 22:00:02;;;;;;;;;;;17.00;49.00;;;;;;10166070;28;1121;-82
2023/01/27 22:04:59;;;;;;;;;;;17.00;49.00;;;;;;10165602;28;1902;-82
2023/01/27 22:09:54;;;;;;;;;;;17.00;49.00;;;;;;10164870;28;1015;-82
2023/01/27 22:14:50;;;;;;;;;;;17.00;48.90;;;;;;10165300;28;875;-82
2023/01/27 22:19:45;;;;;;;;;;;17.00;49.00;;;;;;10180350;28;1977;-82
2023/01/27 22:24:40;;;;;;;;;;;17.00;48.90;;;;;;10179971;28;1906;-82
2023/01/27 22:29:36;;;;;;;;;;;17.00;48.90;;;;;;10164793;28;857;-82
2023/01/27 22:34:31;;;;;;;;;;;17.00;49.00;;;;;;10164649;28;958;-82
2023/01/27 22:39:26;;;;;;;;;;;17.00;49.00;;;;;;10164432;28;1315;-82
2023/01/27 22:44:22;;;;;;;;;;;17.00;48.90;;;;;;10164356;28;1907;-82
2023/01/27 22:49:17;;;;;;;;;;;17.00;48.90;;;;;;10163678;28;866;-82
2023/01/27 22:54:13;;;;;;;;;;;17.00;49.00;;;;;;10163620;28;812;-82
2023/01/27 22:59:08;;;;;;;;;;;17.00;48.90;;;;;;10164041;28;893;-82
2023/01/27 23:04:03;;;;;;;;;;;17.00;49.10;;;;;;10163869;28;1894;-83
2023/01/27 23:08:59;;;;;;;;;;;17.00;49.10;;;;;;10163230;28;1165;-82
2023/01/27 23:13:54;;;;;;;;;;;17.00;49.00;;;;;;10163768;28;841;-83
2023/01/27 23:18:49;;;;;;;;;;;17.00;49.00;;;;;;10164369;28;823;-82
2023/01/27 23:23:45;;;;;;;;;;;17.00;48.90;;;;;;10163657;28;1894;-82
2023/01/27 23:28:40;;;;;;;;;;;17.00;48.90;;;;;;10163559;28;818;-82
2023/01/27 23:33:36;;;;;;;;;;;17.00;48.90;;;;;;10163989;28;806;-82
2023/01/27 23:38:31;;;;;;;;;;;17.00;48.90;;;;;;10163219;28;1268;-82
2023/01/27 23:43:29;;;;;;;;;;;17.00;48.90;;;;;;10162602;28;1906;-82
2023/01/27 23:48:25;;;;;;;;;;;17.00;48.90;;;;;;10178993;28;862;-82
2023/01/27 23:53:20;;;;;;;;;;;17.00;48.90;;;;;;10163642;28;1072;-82
2023/01/27 23:58:15;;;;;;;;;;;17.00;48.80;;;;;;10861809;23;3611;-82
